createdAt,value
2018-05-17T00:00:06.052Z,94883.16
2018-05-17T00:02:32.730Z,94881.83
2018-05-17T00:04:59.424Z,94875.05
2018-05-17T00:07:26.125Z,94879.59
2018-05-17T00:09:52.797Z,94883.27
2018-05-17T00:12:19.431Z,94881.99
2018-05-17T00:14:46.109Z,94882.67
2018-05-17T00:17:12.780Z,94883.95
2018-05-17T00:19:39.418Z,94884.20
2018-05-17T00:22:06.064Z,94873.40
2018-05-17T00:24:32.776Z,94870.10
2018-05-17T00:26:59.445Z,94870.55
2018-05-17T00:29:26.041Z,94879.59
2018-05-17T00:31:52.726Z,94873.70
2018-05-17T00:34:19.365Z,94862.59
2018-05-17T00:36:46.063Z,94861.13
2018-05-17T00:39:12.703Z,94859.55
2018-05-17T00:41:39.382Z,94862.97
2018-05-17T00:44:06.019Z,94865.30
2018-05-17T00:46:32.652Z,94874.64
2018-05-17T00:48:59.389Z,94885.75
2018-05-17T00:51:25.977Z,94882.22
2018-05-17T00:53:52.649Z,94877.47
2018-05-17T00:56:19.292Z,94865.13
2018-05-17T00:58:45.966Z,94856.09
2018-05-17T01:01:12.598Z,94853.27
2018-05-17T01:03:39.227Z,94857.22
2018-05-17T01:06:05.874Z,94862.50
2018-05-17T01:08:32.505Z,94853.80
2018-05-17T01:10:59.179Z,94845.27
2018-05-17T01:13:25.851Z,94848.04
2018-05-17T01:15:52.459Z,94839.70
2018-05-17T01:18:19.168Z,94841.87
2018-05-17T01:20:45.805Z,94850.08
2018-05-17T01:23:12.442Z,94849.69
2018-05-17T01:25:39.070Z,94838.55
2018-05-17T01:28:05.718Z,94836.62
2018-05-17T01:30:33.743Z,94840.63
2018-05-17T01:32:59.105Z,94842.59
2018-05-17T01:35:25.742Z,94841.25
2018-05-17T01:37:52.426Z,94851.74
2018-05-17T01:40:19.063Z,94844.70
2018-05-17T01:42:45.698Z,94848.59
2018-05-17T01:45:12.390Z,94848.00
2018-05-17T01:47:39.029Z,94854.05
2018-05-17T01:50:05.701Z,94846.11
2018-05-17T01:52:32.329Z,94858.73
2018-05-17T01:54:59.029Z,94854.75
2018-05-17T01:57:25.665Z,94855.50
2018-05-17T01:59:52.296Z,94859.59
2018-05-17T02:02:19.034Z,94866.14
2018-05-17T02:04:45.709Z,94867.14
2018-05-17T02:07:12.346Z,94863.80
2018-05-17T02:09:39.022Z,94869.84
2018-05-17T02:12:05.698Z,94867.83
2018-05-17T02:14:32.330Z,94866.15
2018-05-17T02:16:59.002Z,94876.36
2018-05-17T02:19:25.638Z,94871.53
2018-05-17T02:21:52.275Z,94876.66
2018-05-17T02:24:18.968Z,94882.00
2018-05-17T02:26:45.597Z,94874.78
2018-05-17T02:29:12.226Z,94878.22
2018-05-17T02:31:38.873Z,94879.61
2018-05-17T02:34:05.550Z,94881.13
2018-05-17T02:36:32.179Z,94881.58
2018-05-17T02:38:58.811Z,94886.94
2018-05-17T02:41:25.505Z,94882.30
2018-05-17T02:43:53.509Z,94898.95
2018-05-17T02:46:18.798Z,94903.51
2018-05-17T02:48:45.442Z,94898.23
2018-05-17T02:51:12.081Z,94894.89
2018-05-17T02:53:38.714Z,94908.05
2018-05-17T02:56:05.360Z,94907.03
2018-05-17T02:58:31.997Z,94900.02
2018-05-17T03:00:58.681Z,94895.30
2018-05-17T03:03:25.314Z,94902.08
2018-05-17T03:05:51.991Z,94904.09
2018-05-17T03:08:18.626Z,94904.09
2018-05-17T03:10:45.274Z,94905.73
2018-05-17T03:13:11.953Z,94915.19
2018-05-17T03:15:38.586Z,94913.69
2018-05-17T03:18:05.218Z,94904.34
2018-05-17T03:20:31.918Z,94907.50
2018-05-17T03:22:58.594Z,94909.02
2018-05-17T03:25:25.237Z,94902.83
2018-05-17T03:27:52.925Z,94910.39
2018-05-17T03:30:19.558Z,94907.34
2018-05-17T03:32:46.241Z,94914.67
2018-05-17T03:35:12.873Z,94924.97
2018-05-17T03:37:39.565Z,94916.09
2018-05-17T03:40:06.203Z,94917.83
2018-05-17T03:42:32.840Z,94915.98
2018-05-17T03:44:59.523Z,94925.70
2018-05-17T03:47:26.153Z,94927.39
2018-05-17T03:49:52.843Z,94930.38
2018-05-17T03:52:19.495Z,94930.07
2018-05-17T03:54:46.168Z,94933.04
2018-05-17T03:57:12.838Z,94938.43
2018-05-17T03:59:39.478Z,94936.93
2018-05-17T04:02:06.114Z,94938.67
2018-05-17T04:04:32.755Z,94941.28
2018-05-17T04:06:59.396Z,94941.31
2018-05-17T04:09:26.030Z,94947.48
2018-05-17T04:11:52.720Z,94950.27
2018-05-17T04:14:19.309Z,94952.71
2018-05-17T04:16:45.989Z,94956.88
2018-05-17T04:19:12.632Z,94961.59
2018-05-17T04:21:39.268Z,94959.92
2018-05-17T04:24:05.923Z,94959.92
2018-05-17T04:26:32.645Z,94957.97
2018-05-17T04:28:59.331Z,94957.27
2018-05-17T04:31:25.966Z,94954.31
2018-05-17T04:33:52.648Z,94961.14
2018-05-17T04:36:19.273Z,94956.58
2018-05-17T04:38:45.949Z,94962.27
2018-05-17T04:41:12.650Z,94960.95
2018-05-17T04:43:39.288Z,94965.85
2018-05-17T04:46:05.925Z,94965.12
2018-05-17T04:48:32.571Z,94968.95
2018-05-17T04:50:59.268Z,94969.17
2018-05-17T04:53:25.911Z,94967.86
2018-05-17T04:55:52.609Z,94971.03
2018-05-17T04:58:19.245Z,94969.50
2018-05-17T05:00:45.890Z,94963.68
2018-05-17T05:03:12.537Z,94963.36
2018-05-17T05:05:39.179Z,94966.09
2018-05-17T05:08:05.836Z,94969.20
2018-05-17T05:10:32.477Z,94965.28
2018-05-17T05:12:59.162Z,94967.80
2018-05-17T05:15:27.691Z,94959.45
2018-05-17T05:17:52.447Z,94961.16
2018-05-17T05:20:19.085Z,94962.11
2018-05-17T05:22:45.767Z,94973.92
2018-05-17T05:25:12.442Z,94974.81
2018-05-17T05:27:39.047Z,94977.02
2018-05-17T05:30:05.731Z,94964.26
2018-05-17T05:32:32.366Z,94961.36
2018-05-17T05:34:59.058Z,94960.02
2018-05-17T05:37:25.694Z,94970.91
2018-05-17T05:39:52.341Z,94975.95
2018-05-17T05:42:19.008Z,94971.97
2018-05-17T05:44:45.619Z,94972.30
2018-05-17T05:47:12.256Z,94968.88
2018-05-17T05:49:39.002Z,94972.21
2018-05-17T05:52:05.547Z,94983.66
2018-05-17T05:54:32.269Z,94979.86
2018-05-17T05:56:58.869Z,94980.70
2018-05-17T05:59:25.614Z,94978.70
2018-05-17T06:01:52.226Z,94976.04
2018-05-17T06:04:18.882Z,94974.27
2018-05-17T06:06:45.654Z,94963.52
2018-05-17T06:09:12.321Z,94972.62
2018-05-17T06:11:38.985Z,94979.81
2018-05-17T06:14:05.675Z,94967.59
2018-05-17T06:16:32.311Z,94967.85
2018-05-17T06:18:58.975Z,94978.98
2018-05-17T06:21:25.628Z,94974.44
2018-05-17T06:23:52.395Z,94972.89
2018-05-17T06:26:18.963Z,94976.78
2018-05-17T06:28:45.616Z,94971.91
2018-05-17T06:31:12.279Z,94970.30
2018-05-17T06:33:38.926Z,94962.13
2018-05-17T06:36:05.558Z,94959.02
2018-05-17T06:38:32.203Z,94962.90
2018-05-17T06:40:59.205Z,94959.60
2018-05-17T06:43:25.783Z,94964.96
2018-05-17T06:45:52.511Z,94960.93
2018-05-17T06:48:19.201Z,94959.15
2018-05-17T06:50:45.941Z,94937.43
2018-05-17T06:53:12.625Z,94954.83
2018-05-17T06:55:40.565Z,94958.39
2018-05-17T06:58:05.902Z,94956.80
2018-05-17T07:00:32.666Z,94960.13
2018-05-17T07:03:00.210Z,94951.86
2018-05-17T07:05:25.904Z,94959.53
2018-05-17T07:07:52.540Z,94954.86
2018-05-17T07:10:19.189Z,94957.64
2018-05-17T07:12:45.827Z,94956.45
2018-05-17T07:15:12.487Z,94950.09
2018-05-17T07:17:39.158Z,94947.87
2018-05-17T07:20:05.849Z,94950.50
2018-05-17T07:22:32.582Z,94946.11
2018-05-17T07:24:59.347Z,94955.80
2018-05-17T07:27:25.989Z,94956.94
2018-05-17T07:29:52.727Z,94957.47
2018-05-17T07:32:19.264Z,94956.08
2018-05-17T07:34:47.044Z,94960.79
2018-05-17T07:37:13.654Z,94955.16
2018-05-17T07:39:40.285Z,94952.41
2018-05-17T07:42:06.931Z,94960.52
2018-05-17T07:44:33.637Z,94966.97
2018-05-17T07:47:00.332Z,94968.17
2018-05-17T07:49:27.133Z,94954.83
2018-05-17T07:51:53.773Z,94956.92
2018-05-17T07:54:20.448Z,94961.94
2018-05-17T07:56:47.137Z,94955.44
2018-05-17T07:59:13.736Z,94959.48
2018-05-17T08:01:40.415Z,94954.76
2018-05-17T08:04:07.130Z,94954.56
2018-05-17T08:06:33.770Z,94949.09
2018-05-17T08:09:00.424Z,94951.17
2018-05-17T08:11:27.061Z,94931.64
2018-05-17T08:13:53.735Z,94955.94
2018-05-17T08:16:20.431Z,94953.39
2018-05-17T08:18:47.074Z,94955.72
2018-05-17T08:21:13.740Z,94962.97
2018-05-17T08:23:40.387Z,94954.33
2018-05-17T08:26:07.018Z,94949.52
2018-05-17T08:28:33.669Z,94952.73
2018-05-17T08:31:00.358Z,94954.59
2018-05-17T08:33:27.003Z,94952.97
2018-05-17T08:35:53.639Z,94951.45
2018-05-17T08:38:20.299Z,94956.09
2018-05-17T08:40:46.959Z,94948.02
2018-05-17T08:43:13.681Z,94954.75
2018-05-17T08:45:40.381Z,94958.18
2018-05-17T08:48:07.010Z,94952.17
2018-05-17T08:50:33.688Z,94958.81
2018-05-17T08:53:00.330Z,94957.09
2018-05-17T08:55:26.966Z,94949.81
2018-05-17T08:57:53.611Z,94947.08
2018-05-17T09:00:20.246Z,94955.58
2018-05-17T09:02:46.933Z,94949.21
2018-05-17T09:05:13.532Z,94940.77
2018-05-17T09:07:40.166Z,94947.10
2018-05-17T09:10:06.799Z,94940.77
2018-05-17T09:12:33.441Z,94948.99
2018-05-17T09:15:00.077Z,94947.86
2018-05-17T09:17:26.707Z,94947.33
2018-05-17T09:19:53.377Z,94940.28
2018-05-17T09:22:20.056Z,94941.92
2018-05-17T09:24:46.696Z,94937.09
2018-05-17T09:27:13.338Z,94935.67
2018-05-17T09:29:40.052Z,94930.59
2018-05-17T09:32:06.802Z,94933.80
2018-05-17T09:34:33.435Z,94928.70
2018-05-17T09:37:00.083Z,94918.95
2018-05-17T09:39:26.776Z,94927.16
2018-05-17T09:41:53.446Z,94932.71
2018-05-17T09:44:20.068Z,94923.13
2018-05-17T09:46:46.802Z,94934.44
2018-05-17T09:49:14.536Z,94929.81
2018-05-17T09:51:41.217Z,94929.25
2018-05-17T09:54:07.849Z,94928.12
2018-05-17T09:56:34.622Z,94930.68
2018-05-17T09:59:01.356Z,94928.14
2018-05-17T10:01:28.054Z,94933.41
2018-05-17T10:03:54.723Z,94928.63
2018-05-17T10:06:21.337Z,94925.91
2018-05-17T10:08:48.058Z,94924.62
2018-05-17T10:11:14.631Z,94933.08
2018-05-17T10:13:41.275Z,94928.63
2018-05-17T10:16:07.919Z,94927.44
2018-05-17T10:18:34.583Z,94930.81
2018-05-17T10:21:01.304Z,94929.70
2018-05-17T10:23:27.959Z,94925.03
2018-05-17T10:25:54.606Z,94923.23
2018-05-17T10:28:21.250Z,94923.83
2018-05-17T10:30:47.898Z,94924.82
2018-05-17T10:33:14.542Z,94926.59
2018-05-17T10:35:41.178Z,94926.23
2018-05-17T10:38:07.896Z,94922.70
2018-05-17T10:40:34.603Z,94912.44
2018-05-17T10:43:01.290Z,94909.53
2018-05-17T10:45:27.923Z,94914.25
2018-05-17T10:47:54.575Z,94909.09
2018-05-17T10:50:21.260Z,94907.73
2018-05-17T10:52:47.914Z,94903.32
2018-05-17T10:55:14.561Z,94900.69
2018-05-17T10:57:42.305Z,94901.09
2018-05-17T11:00:08.932Z,94905.84
2018-05-17T11:02:36.068Z,94899.09
2018-05-17T11:05:02.660Z,94897.31
2018-05-17T11:07:29.337Z,94891.06
2018-05-17T11:09:58.377Z,94884.11
2018-05-17T11:12:25.978Z,94891.92
2018-05-17T11:14:54.661Z,94881.64
2018-05-17T11:17:21.363Z,94888.44
2018-05-17T11:19:48.037Z,94882.04
2018-05-17T11:22:14.690Z,94886.56
2018-05-17T11:24:41.348Z,94882.70
2018-05-17T11:27:07.989Z,94885.41
2018-05-17T11:29:34.659Z,94889.06
2018-05-17T11:32:01.378Z,94881.22
2018-05-17T11:34:28.005Z,94879.16
2018-05-17T11:36:55.110Z,94876.20
2018-05-17T11:39:21.776Z,94879.84
2018-05-17T11:41:48.524Z,94886.27
2018-05-17T11:44:15.262Z,94881.44
2018-05-17T11:46:41.813Z,94874.34
2018-05-17T11:49:08.499Z,94875.35
2018-05-17T11:51:35.310Z,94877.89
2018-05-17T11:54:01.907Z,94872.27
2018-05-17T11:56:28.569Z,94869.54
2018-05-17T11:58:56.321Z,94865.98
2018-05-17T12:01:22.980Z,94858.08
2018-05-17T12:03:49.623Z,94857.36
2018-05-17T12:06:16.325Z,94861.02
2018-05-17T12:08:42.961Z,94860.05
2018-05-17T12:11:09.620Z,94864.90
2018-05-17T12:13:36.278Z,94870.73
2018-05-17T12:16:03.954Z,94866.34
2018-05-17T12:18:30.611Z,94862.10
2018-05-17T12:20:57.251Z,94867.52
2018-05-17T12:23:23.919Z,94860.05
2018-05-17T12:25:50.570Z,94861.72
2018-05-17T12:28:17.232Z,94858.08
2018-05-17T12:30:43.918Z,94865.84
2018-05-17T12:33:10.609Z,94858.95
2018-05-17T12:35:37.250Z,94850.64
2018-05-17T12:38:03.983Z,94854.83
2018-05-17T12:40:31.717Z,94847.87
2018-05-17T12:42:58.420Z,94845.45
2018-05-17T12:45:25.091Z,94842.99
2018-05-17T12:47:51.776Z,94840.53
2018-05-17T12:50:18.505Z,94835.19
2018-05-17T12:52:45.119Z,94831.48
2018-05-17T12:55:11.772Z,94835.83
2018-05-17T12:57:38.472Z,94829.47
2018-05-17T13:00:05.231Z,94830.30
2018-05-17T13:02:32.025Z,94834.57
2018-05-17T13:04:58.676Z,94823.45
2018-05-17T13:07:25.513Z,94823.22
2018-05-17T13:09:52.196Z,94828.92
2018-05-17T13:12:18.837Z,94829.25
2018-05-17T13:14:45.544Z,94826.83
2018-05-17T13:17:12.199Z,94828.22
2018-05-17T13:19:38.886Z,94820.44
2018-05-17T13:22:05.591Z,94829.28
2018-05-17T13:24:32.657Z,94824.73
2018-05-17T13:26:59.308Z,94825.20
2018-05-17T13:29:25.964Z,94820.78
2018-05-17T13:31:52.642Z,94820.45
2018-05-17T13:34:19.366Z,94826.50
2018-05-17T13:36:46.047Z,94818.17
2018-05-17T13:39:12.831Z,94822.14
2018-05-17T13:41:40.746Z,94832.66
2018-05-17T13:44:06.157Z,94821.11
2018-05-17T13:46:32.807Z,94822.70
2018-05-17T13:48:59.494Z,94824.63
2018-05-17T13:51:26.170Z,94826.03
2018-05-17T13:53:52.813Z,94834.30
2018-05-17T13:56:19.539Z,94832.77
2018-05-17T13:58:46.170Z,94824.28
2018-05-17T14:01:12.909Z,94823.27
2018-05-17T14:03:39.547Z,94816.95
2018-05-17T14:06:07.216Z,94825.91
2018-05-17T14:08:36.159Z,94824.20
2018-05-17T14:11:02.841Z,94832.44
2018-05-17T14:13:29.457Z,94823.80
2018-05-17T14:15:56.100Z,94831.48
2018-05-17T14:18:22.770Z,94835.38
2018-05-17T14:20:49.467Z,94826.52
2018-05-17T14:23:16.119Z,94830.28
2018-05-17T14:25:42.774Z,94838.98
2018-05-17T14:28:09.500Z,94840.02
2018-05-17T14:30:36.122Z,94844.93
2018-05-17T14:33:03.016Z,94838.46
2018-05-17T14:35:29.675Z,94846.67
2018-05-17T14:37:56.306Z,94847.57
2018-05-17T14:40:23.001Z,94848.87
2018-05-17T14:42:49.658Z,94846.99
2018-05-17T14:45:16.530Z,94852.05
2018-05-17T14:47:43.214Z,94846.49
2018-05-17T14:50:09.850Z,94853.36
2018-05-17T14:52:36.505Z,94842.61
2018-05-17T14:55:03.179Z,94839.52
2018-05-17T14:57:29.809Z,94845.46
2018-05-17T14:59:56.474Z,94842.83
2018-05-17T15:02:23.138Z,94847.61
2018-05-17T15:04:49.791Z,94846.88
2018-05-17T15:07:16.432Z,94845.50
2018-05-17T15:09:43.061Z,94852.84
2018-05-17T15:12:09.710Z,94854.44
2018-05-17T15:14:36.349Z,94849.05
2018-05-17T15:17:03.026Z,94844.96
2018-05-17T15:19:29.620Z,94848.50
2018-05-17T15:21:56.261Z,94845.22
2018-05-17T15:24:22.924Z,94844.16
2018-05-17T15:26:49.615Z,94845.23
2018-05-17T15:29:16.373Z,94851.94
2018-05-17T15:31:43.111Z,94848.61
2018-05-17T15:34:09.741Z,94846.37
2018-05-17T15:36:36.450Z,94842.95
2018-05-17T15:39:03.129Z,94843.47
2018-05-17T15:41:29.847Z,94844.43
2018-05-17T15:43:56.502Z,94854.34
2018-05-17T15:46:23.140Z,94848.14
2018-05-17T15:48:49.791Z,94850.44
2018-05-17T15:51:18.731Z,94852.32
2018-05-17T15:53:45.363Z,94862.75
2018-05-17T15:56:12.040Z,94861.30
2018-05-17T15:58:38.657Z,94865.63
2018-05-17T16:01:05.408Z,94862.34
2018-05-17T16:03:32.103Z,94864.55
2018-05-17T16:05:58.749Z,94870.05
2018-05-17T16:08:25.391Z,94870.17
2018-05-17T16:10:52.040Z,94873.58
2018-05-17T16:13:18.694Z,94869.21
2018-05-17T16:15:45.425Z,94870.22
2018-05-17T16:18:11.971Z,94870.80
2018-05-17T16:20:38.621Z,94868.34
2018-05-17T16:23:05.249Z,94872.51
2018-05-17T16:25:31.890Z,94874.39
2018-05-17T16:27:58.522Z,94868.20
2018-05-17T16:30:25.203Z,94867.03
2018-05-17T16:32:51.842Z,94874.19
2018-05-17T16:35:18.490Z,94872.75
2018-05-17T16:37:45.130Z,94872.37
2018-05-17T16:40:11.775Z,94876.94
2018-05-17T16:42:38.421Z,94878.37
2018-05-17T16:45:05.064Z,94882.43
2018-05-17T16:47:31.726Z,94874.73
2018-05-17T16:49:58.362Z,94876.14
2018-05-17T16:52:25.010Z,94879.97
2018-05-17T16:54:51.641Z,94884.18
2018-05-17T16:57:18.305Z,94882.36
2018-05-17T16:59:44.945Z,94885.86
2018-05-17T17:02:11.580Z,94891.72
2018-05-17T17:04:38.205Z,94889.08
2018-05-17T17:07:04.900Z,94887.45
2018-05-17T17:09:31.546Z,94894.98
2018-05-17T17:11:58.179Z,94897.05
2018-05-17T17:14:24.855Z,94901.37
2018-05-17T17:16:52.085Z,94899.83
2018-05-17T17:19:18.694Z,94903.94
2018-05-17T17:21:45.331Z,94907.06
2018-05-17T17:24:12.004Z,94903.27
2018-05-17T17:26:38.606Z,94910.22
2018-05-17T17:29:05.241Z,94915.85
2018-05-17T17:31:31.894Z,94915.13
2018-05-17T17:33:58.525Z,94917.28
2018-05-17T17:36:25.217Z,94920.24
2018-05-17T17:38:51.801Z,94919.22
2018-05-17T17:41:18.445Z,94928.28
2018-05-17T17:43:45.166Z,94924.19
2018-05-17T17:46:11.804Z,94926.25
2018-05-17T17:48:38.433Z,94934.93
2018-05-17T17:51:05.081Z,94932.78
2018-05-17T17:53:31.719Z,94938.06
2018-05-17T17:55:58.357Z,94940.53
2018-05-17T17:58:25.035Z,94941.08
2018-05-17T18:00:51.632Z,94949.20
2018-05-17T18:03:18.270Z,94942.05
2018-05-17T18:05:44.903Z,94948.74
2018-05-17T18:08:11.546Z,94951.80
2018-05-17T18:10:38.187Z,94947.03
2018-05-17T18:13:04.834Z,94952.23
2018-05-17T18:15:31.496Z,94952.26
2018-05-17T18:17:58.108Z,94952.17
2018-05-17T18:20:24.773Z,94960.41
2018-05-17T18:22:51.397Z,94958.95
2018-05-17T18:25:18.041Z,94959.02
2018-05-17T18:27:44.674Z,94965.39
2018-05-17T18:30:11.314Z,94971.60
2018-05-17T18:32:38.005Z,94973.14
2018-05-17T18:35:04.642Z,94975.31
2018-05-17T18:37:31.268Z,94978.73
2018-05-17T18:39:57.907Z,94989.58
2018-05-17T18:42:24.549Z,94989.73
2018-05-17T18:44:51.255Z,94996.71
2018-05-17T18:47:17.829Z,94996.34
2018-05-17T18:49:44.466Z,94996.52
2018-05-17T18:52:11.097Z,95000.95
2018-05-17T18:54:37.766Z,95003.55
2018-05-17T18:57:04.423Z,95008.59
2018-05-17T18:59:31.016Z,95015.06
2018-05-17T19:01:57.722Z,95013.84
2018-05-17T19:04:24.300Z,95005.05
2018-05-17T19:06:50.935Z,95016.56
2018-05-17T19:09:17.611Z,95013.28
2018-05-17T19:11:44.254Z,95016.76
2018-05-17T19:14:10.961Z,95021.63
2018-05-17T19:16:37.552Z,95024.47
2018-05-17T19:19:04.286Z,95023.89
2018-05-17T19:21:30.932Z,95020.66
2018-05-17T19:23:57.568Z,95017.56
2018-05-17T19:26:24.207Z,95023.77
2018-05-17T19:28:50.949Z,95020.80
2018-05-17T19:31:17.606Z,95024.34
2018-05-17T19:33:44.251Z,95025.29
2018-05-17T19:36:10.810Z,95025.03
2018-05-17T19:38:37.483Z,95026.42
2018-05-17T19:41:04.078Z,95029.46
2018-05-17T19:43:30.717Z,95033.86
2018-05-17T19:45:57.363Z,95037.48
2018-05-17T19:48:23.998Z,95033.36
2018-05-17T19:50:50.687Z,95039.19
2018-05-17T19:53:17.325Z,95040.63
2018-05-17T19:55:43.962Z,95044.16
2018-05-17T19:58:11.925Z,95045.86
2018-05-17T20:00:37.225Z,95049.28
2018-05-17T20:03:03.911Z,95055.22
2018-05-17T20:05:30.581Z,95052.44
2018-05-17T20:07:57.221Z,95053.45
2018-05-17T20:10:23.858Z,95054.84
2018-05-17T20:12:50.495Z,95049.97
2018-05-17T20:15:17.141Z,95056.71
2018-05-17T20:17:43.769Z,95057.34
2018-05-17T20:20:10.415Z,95066.28
2018-05-17T20:22:37.058Z,95060.01
2018-05-17T20:25:03.692Z,95057.66
2018-05-17T20:27:30.330Z,95051.66
2018-05-17T20:29:56.969Z,95050.32
2018-05-17T20:32:23.605Z,95057.04
2018-05-17T20:34:50.283Z,95060.31
2018-05-17T20:37:16.913Z,95067.15
2018-05-17T20:39:43.592Z,95065.80
2018-05-17T20:42:10.234Z,95072.76
2018-05-17T20:44:36.875Z,95078.58
2018-05-17T20:47:03.522Z,95068.59
2018-05-17T20:49:30.169Z,95067.76
2018-05-17T20:51:56.864Z,95073.32
2018-05-17T20:54:23.537Z,95076.36
2018-05-17T20:56:50.171Z,95076.78
2018-05-17T20:59:16.812Z,95069.45
2018-05-17T21:01:43.462Z,95074.27
2018-05-17T21:04:10.107Z,95068.32
2018-05-17T21:06:36.756Z,95070.25
2018-05-17T21:09:03.393Z,95070.84
2018-05-17T21:11:30.061Z,95067.59
2018-05-17T21:13:56.742Z,95068.37
2018-05-17T21:16:23.383Z,95065.33
2018-05-17T21:18:50.014Z,95066.88
2018-05-17T21:21:16.652Z,95074.32
2018-05-17T21:23:46.559Z,95065.86
2018-05-17T21:26:14.287Z,95068.38
2018-05-17T21:28:39.850Z,95069.19
2018-05-17T21:31:07.856Z,95078.30
2018-05-17T21:33:37.558Z,95074.25
2018-05-17T21:36:05.456Z,95071.25
2018-05-17T21:38:32.089Z,95068.61
2018-05-17T21:40:58.701Z,95069.16
2018-05-17T21:43:25.334Z,95071.65
2018-05-17T21:45:52.075Z,95071.81
2018-05-17T21:48:18.714Z,95069.41
2018-05-17T21:50:45.416Z,95066.77
2018-05-17T21:53:12.052Z,95069.16
2018-05-17T21:55:38.714Z,95068.91
2018-05-17T21:58:05.343Z,95073.84
2018-05-17T22:00:31.981Z,95078.90
2018-05-17T22:02:58.619Z,95081.47
2018-05-17T22:05:25.261Z,95076.03
2018-05-17T22:07:54.553Z,95073.84
2018-05-17T22:10:24.119Z,95068.84
2018-05-17T22:12:54.086Z,95059.45
2018-05-17T22:15:23.499Z,95062.15
2018-05-17T22:17:51.473Z,95063.74
2018-05-17T22:20:16.781Z,95066.06
2018-05-17T22:22:45.531Z,95067.50
2018-05-17T22:25:10.099Z,95076.34
2018-05-17T22:27:36.855Z,95084.69
2018-05-17T22:30:03.493Z,95085.20
2018-05-17T22:32:30.129Z,95075.52
2018-05-17T22:34:56.805Z,95071.13
2018-05-17T22:37:23.446Z,95063.43
2018-05-17T22:39:50.090Z,95064.27
2018-05-17T22:42:16.772Z,95061.02
2018-05-17T22:44:43.419Z,95056.52
2018-05-17T22:47:12.917Z,95048.78
2018-05-17T22:49:39.551Z,95049.57
2018-05-17T22:52:06.197Z,95052.98
2018-05-17T22:54:32.831Z,95060.31
2018-05-17T22:57:01.514Z,95056.28
2018-05-17T22:59:30.901Z,95058.20
2018-05-17T23:01:57.538Z,95058.97
2018-05-17T23:04:24.187Z,95064.52
2018-05-17T23:06:50.831Z,95059.59
2018-05-17T23:09:18.853Z,95059.81
2018-05-17T23:11:44.149Z,95060.36
2018-05-17T23:14:12.733Z,95056.83
2018-05-17T23:16:39.367Z,95061.28
2018-05-17T23:19:07.844Z,95063.01
2018-05-17T23:21:35.815Z,95066.84
2018-05-17T23:24:01.137Z,95059.89
2018-05-17T23:26:30.963Z,95060.65
2018-05-17T23:28:57.607Z,95066.98
2018-05-17T23:31:24.237Z,95067.98
2018-05-17T23:33:50.914Z,95065.38
2018-05-17T23:36:18.988Z,95066.22
2018-05-17T23:38:44.238Z,95062.13
2018-05-17T23:41:13.816Z,95056.58
2018-05-17T23:43:40.465Z,95061.37
2018-05-17T23:46:12.358Z,95063.19
2018-05-17T23:48:36.790Z,95059.11
2018-05-17T23:51:03.440Z,95060.11
2018-05-17T23:53:32.707Z,95056.49
2018-05-17T23:56:05.404Z,95059.41
2018-05-17T23:58:25.989Z,95060.03
